Genoa City, Wisconsin
Current Conditions -  °F | °C
As of 1:35 PM on Thursday 27 Nov 2014 (Local Time) from KBUU Reporting Station
Light Snow Light Snow  
Wind Chill:   Ceiling: 2000
Heat Index: 19°   Visibility: 7mi
Dew Point: 12°   Wind: 12mph
Humidity: 75%   Direction: 340°NNW
Pressure: 30.34"   Gusts: NA
Location:  42.5°N, 88.33°W
Report Text: KBUU 271935Z AUTO 34010KT 7SM -SN OVC020 M07/M11 A3034 RMK AO2 T10751112
Loading
Personal Weather Stations






























Interactive Weather Map New forecast layout! Learn more

10-Day Weather Forecast

Advertisements
Track Severe Weather on mobile